Time;durP1;ratioP1;P1;durP2;ratioP2;P2;SDS_P1;SDS_P2;PMS_P1;PMS_P2;Temp;Humidity;BMP_temperature;BMP_pressure;BME280_temperature;BME280_humidity;BME280_pressure;Samples;Min_cycle;Max_cycle;Signal;HPM_P1;HPM_P2
2023/12/17 00:00:59;;;;;;;17.00;7.65;;;8.90;99.90;;;;;;5074805;28;20442;-50
2023/12/17 00:03:26;;;;;;;17.25;8.40;;;9.00;99.90;;;;;;5075060;28;20597;-49
2023/12/17 00:05:52;;;;;;;14.70;7.18;;;9.20;99.90;;;;;;5074628;28;20398;-47
2023/12/17 00:08:20;;;;;;;14.75;7.43;;;8.90;99.90;;;;;;5074884;28;20086;-47
2023/12/17 00:10:54;;;;;;;15.63;8.18;;;8.90;99.90;;;;;;5073466;28;20114;-46
2023/12/17 00:13:20;;;;;;;17.15;7.35;;;9.20;99.90;;;;;;5074642;28;20075;-47
2023/12/17 00:15:46;;;;;;;17.77;6.95;;;9.00;99.90;;;;;;5074553;28;20373;-46
2023/12/17 00:18:12;;;;;;;20.73;9.13;;;8.90;99.90;;;;;;5074636;28;20848;-46
2023/12/17 00:20:38;;;;;;;15.65;6.75;;;9.20;99.90;;;;;;5074743;28;20067;-46
2023/12/17 00:23:04;;;;;;;15.73;6.82;;;8.90;99.90;;;;;;5074536;28;20044;-47
2023/12/17 00:25:33;;;;;;;15.50;7.57;;;9.20;99.90;;;;;;5074769;28;20024;-46
2023/12/17 00:27:59;;;;;;;15.63;8.68;;;9.30;99.90;;;;;;5074790;28;20040;-46
2023/12/17 00:30:24;;;;;;;16.15;6.80;;;9.00;99.90;;;;;;5074667;28;20045;-46
2023/12/17 00:32:50;;;;;;;15.65;6.95;;;9.10;99.90;;;;;;5074581;28;20079;-46
2023/12/17 00:35:16;;;;;;;14.07;6.90;;;9.20;99.90;;;;;;5074305;28;20036;-50
2023/12/17 00:37:42;;;;;;;14.25;7.25;;;9.00;99.90;;;;;;5074112;28;20120;-50
2023/12/17 00:40:08;;;;;;;15.25;6.88;;;9.30;99.90;;;;;;5074035;28;20056;-49
2023/12/17 00:42:34;;;;;;;14.63;7.05;;;9.20;99.90;;;;;;5074148;28;20037;-46
2023/12/17 00:44:59;;;;;;;12.70;6.88;;;9.40;99.90;;;;;;5074157;28;20032;-48
2023/12/17 00:47:25;;;;;;;14.48;6.80;;;9.20;99.90;;;;;;5074057;28;20048;-50
2023/12/17 00:49:52;;;;;;;15.77;7.32;;;9.30;99.90;;;;;;5072715;28;20048;-47
2023/12/17 00:52:19;;;;;;;15.52;6.65;;;9.00;99.90;;;;;;5073649;28;20115;-46
2023/12/17 00:54:45;;;;;;;13.70;6.60;;;9.30;99.90;;;;;;5073794;28;20052;-46
2023/12/17 00:57:11;;;;;;;15.45;7.32;;;9.30;99.90;;;;;;5073365;28;20120;-46
2023/12/17 00:59:37;;;;;;;15.35;6.80;;;9.20;99.90;;;;;;5073862;28;20614;-46
2023/12/17 01:02:03;;;;;;;17.10;7.95;;;9.10;99.90;;;;;;5074073;28;20497;-49
2023/12/17 01:04:28;;;;;;;15.55;7.15;;;9.10;99.90;;;;;;5073896;28;20036;-50
2023/12/17 01:06:54;;;;;;;13.45;6.47;;;9.40;99.90;;;;;;5073889;28;20121;-49
2023/12/17 01:09:20;;;;;;;13.98;7.07;;;9.10;99.90;;;;;;5073807;28;20040;-49
2023/12/17 01:11:45;;;;;;;13.57;7.10;;;9.10;99.90;;;;;;5072391;28;20040;-50
2023/12/17 01:14:11;;;;;;;13.10;6.55;;;9.10;99.90;;;;;;5073626;28;20123;-51
2023/12/17 01:16:37;;;;;;;13.88;6.88;;;9.20;99.90;;;;;;5073434;28;20491;-50
2023/12/17 01:19:02;;;;;;;16.73;6.80;;;9.10;99.90;;;;;;5073337;28;20102;-47
2023/12/17 01:21:28;;;;;;;16.67;6.78;;;9.40;99.90;;;;;;5073007;28;20045;-48
2023/12/17 01:23:54;;;;;;;14.35;6.88;;;9.10;99.90;;;;;;5072949;28;20028;-45
2023/12/17 01:26:22;;;;;;;15.45;6.10;;;9.40;99.90;;;;;;5073039;28;20424;-45
2023/12/17 01:28:49;;;;;;;12.88;7.07;;;9.20;99.90;;;;;;5073017;28;20048;-46
2023/12/17 01:31:15;;;;;;;14.32;6.45;;;9.30;99.90;;;;;;5072706;28;20109;-45
2023/12/17 01:33:41;;;;;;;16.23;6.78;;;9.20;99.90;;;;;;5073049;28;20047;-45
2023/12/17 01:36:07;;;;;;;16.95;6.90;;;9.10;99.90;;;;;;5073258;28;20028;-47
2023/12/17 01:38:33;;;;;;;20.23;7.35;;;9.40;99.90;;;;;;5073103;28;20036;-47
2023/12/17 01:40:59;;;;;;;12.90;6.55;;;9.40;99.90;;;;;;5072439;28;20520;-46
2023/12/17 01:43:25;;;;;;;18.23;7.32;;;9.50;99.90;;;;;;5072581;28;20127;-46
2023/12/17 01:45:52;;;;;;;14.63;6.43;;;9.40;99.90;;;;;;5072625;28;20037;-46
2023/12/17 01:48:19;;;;;;;14.90;6.53;;;9.30;99.90;;;;;;5072280;28;20097;-46
2023/12/17 01:50:45;;;;;;;12.55;6.60;;;9.40;99.90;;;;;;5072970;28;20749;-47
2023/12/17 01:53:12;;;;;;;17.20;6.30;;;9.40;99.90;;;;;;5072808;28;20040;-45
2023/12/17 01:55:39;;;;;;;15.48;6.32;;;9.40;99.90;;;;;;5072833;28;20399;-47
2023/12/17 01:58:08;;;;;;;13.88;6.63;;;9.20;99.90;;;;;;5072669;28;20063;-47
2023/12/17 02:00:36;;;;;;;12.07;6.68;;;9.20;99.90;;;;;;5072421;28;20439;-48
2023/12/17 02:03:03;;;;;;;13.07;6.95;;;9.40;99.90;;;;;;5072486;28;20049;-50
2023/12/17 02:05:31;;;;;;;12.85;6.45;;;9.20;99.90;;;;;;5072795;28;20346;-46
2023/12/17 02:07:57;;;;;;;13.90;6.22;;;9.20;99.90;;;;;;5072504;28;20119;-50
2023/12/17 02:10:23;;;;;;;14.90;6.70;;;9.20;99.90;;;;;;5071756;28;20124;-51
2023/12/17 02:12:49;;;;;;;12.35;5.95;;;9.30;99.90;;;;;;5072514;28;20089;-51
2023/12/17 02:15:15;;;;;;;14.05;6.35;;;9.40;99.90;;;;;;5070936;28;20052;-47
2023/12/17 02:17:40;;;;;;;14.38;5.78;;;9.30;99.90;;;;;;5071951;28;20044;-46
2023/12/17 02:20:07;;;;;;;14.05;6.65;;;9.20;99.90;;;;;;5071946;28;20127;-47
2023/12/17 02:22:33;;;;;;;14.02;6.80;;;9.40;99.90;;;;;;5072371;28;20050;-47
2023/12/17 02:24:59;;;;;;;12.70;6.47;;;9.10;99.90;;;;;;5072362;28;20396;-47
2023/12/17 02:27:26;;;;;;;20.42;6.95;;;9.30;99.90;;;;;;5072429;28;20036;-49
2023/12/17 02:29:52;;;;;;;11.80;6.40;;;9.20;99.90;;;;;;5072427;28;20230;-46
2023/12/17 02:32:21;;;;;;;11.50;5.82;;;9.40;99.90;;;;;;5072060;28;20087;-46
2023/12/17 02:34:47;;;;;;;14.82;6.97;;;9.40;99.90;;;;;;5072359;28;20044;-48
2023/12/17 02:37:12;;;;;;;13.13;6.28;;;9.10;99.90;;;;;;5072323;28;20040;-50
2023/12/17 02:39:38;;;;;;;15.57;6.10;;;9.10;99.90;;;;;;5072039;28;20058;-47
2023/12/17 02:42:04;;;;;;;15.65;6.18;;;9.30;99.90;;;;;;5072032;28;20502;-49
2023/12/17 02:44:30;;;;;;;14.60;6.00;;;9.20;99.90;;;;;;5072205;28;20079;-46
2023/12/17 02:46:56;;;;;;;15.65;6.70;;;9.30;99.90;;;;;;5070897;28;20076;-46
2023/12/17 02:49:22;;;;;;;12.27;5.50;;;9.10;99.90;;;;;;5071934;28;20040;-45
2023/12/17 02:51:47;;;;;;;15.77;6.45;;;9.30;99.90;;;;;;5071607;28;20434;-51
2023/12/17 02:54:13;;;;;;;12.63;6.18;;;9.10;99.90;;;;;;5053621;28;20052;-50
2023/12/17 02:56:39;;;;;;;16.00;6.40;;;9.00;99.90;;;;;;5071680;28;20044;-47
2023/12/17 02:59:08;;;;;;;12.52;5.70;;;9.10;99.90;;;;;;5071844;28;20049;-47
2023/12/17 03:01:34;;;;;;;12.55;5.70;;;9.30;99.90;;;;;;5071466;28;20508;-50
2023/12/17 03:04:01;;;;;;;10.75;5.72;;;9.10;99.90;;;;;;5071705;28;20043;-48
2023/12/17 03:06:27;;;;;;;13.55;5.90;;;9.10;99.90;;;;;;5071651;28;20037;-48
2023/12/17 03:08:53;;;;;;;17.95;7.10;;;9.30;99.90;;;;;;5070446;28;20033;-47
2023/12/17 03:11:18;;;;;;;14.05;5.72;;;9.10;99.90;;;;;;5071686;28;20040;-49
2023/12/17 03:13:44;;;;;;;11.15;5.40;;;9.20;99.90;;;;;;5071739;28;20044;-51
2023/12/17 03:16:10;;;;;;;15.75;5.15;;;9.10;99.90;;;;;;5071962;28;20130;-46
2023/12/17 03:18:36;;;;;;;14.77;5.82;;;9.20;99.90;;;;;;5071543;28;20072;-49
2023/12/17 03:21:04;;;;;;;13.65;5.75;;;9.10;99.90;;;;;;5073049;28;20041;-49
2023/12/17 03:23:29;;;;;;;11.95;6.60;;;9.30;99.90;;;;;;5074132;28;20506;-46
2023/12/17 03:25:55;;;;;;;17.15;6.82;;;9.10;99.90;;;;;;5075479;28;20051;-47
2023/12/17 03:28:21;;;;;;;15.25;6.00;;;9.30;99.90;;;;;;5075791;28;20052;-47
2023/12/17 03:30:46;;;;;;;12.40;6.50;;;9.30;99.90;;;;;;5075164;28;20040;-49
2023/12/17 03:33:12;;;;;;;12.80;6.63;;;9.10;99.90;;;;;;5075038;28;20029;-46
2023/12/17 03:35:38;;;;;;;10.95;6.13;;;9.10;99.90;;;;;;5075303;28;20040;-49
2023/12/17 03:38:03;;;;;;;13.95;6.90;;;9.20;99.90;;;;;;5075363;28;20054;-46
2023/12/17 03:40:30;;;;;;;14.05;6.00;;;9.10;99.90;;;;;;5074938;28;20045;-48
2023/12/17 03:42:56;;;;;;;13.52;6.43;;;9.10;99.90;;;;;;5074082;28;20040;-46
2023/12/17 03:45:22;;;;;;;14.02;7.30;;;9.10;99.90;;;;;;5073880;28;20380;-46
2023/12/17 03:47:48;;;;;;;13.85;6.13;;;9.10;99.90;;;;;;5074892;28;20119;-46
2023/12/17 03:50:18;;;;;;;13.02;6.35;;;9.10;99.90;;;;;;5074685;28;20044;-45
2023/12/17 03:52:47;;;;;;;13.98;6.68;;;9.20;99.90;;;;;;5074492;28;20053;-45
2023/12/17 03:55:14;;;;;;;14.95;6.03;;;9.20;99.90;;;;;;5074708;28;20045;-45
2023/12/17 03:57:40;;;;;;;15.07;6.63;;;9.10;99.90;;;;;;5074465;28;20052;-48
2023/12/17 04:00:06;;;;;;;13.40;6.55;;;9.10;99.90;;;;;;5074637;28;20083;-46
2023/12/17 04:02:32;;;;;;;17.17;6.88;;;9.10;99.90;;;;;;5074439;28;20561;-46
2023/12/17 04:04:59;;;;;;;15.30;6.85;;;9.10;99.90;;;;;;5074776;28;20055;-45
2023/12/17 04:07:29;;;;;;;14.20;6.93;;;9.00;99.90;;;;;;5074724;28;20173;-46
2023/12/17 04:10:02;;;;;;;14.20;6.72;;;9.00;99.90;;;;;;5074850;28;20055;-45
2023/12/17 04:12:28;;;;;;;14.27;7.30;;;9.20;99.90;;;;;;5074714;28;20052;-46
2023/12/17 04:14:54;;;;;;;17.00;7.03;;;9.10;99.90;;;;;;5074595;28;20408;-46
2023/12/17 04:17:19;;;;;;;13.88;7.53;;;9.00;99.90;;;;;;5073110;28;20578;-46
2023/12/17 04:19:45;;;;;;;15.05;7.32;;;9.10;99.90;;;;;;5074323;28;20055;-47
2023/12/17 04:22:11;;;;;;;15.65;7.32;;;9.20;99.90;;;;;;5074598;28;20051;-46
2023/12/17 04:24:37;;;;;;;16.33;8.23;;;9.00;99.90;;;;;;5074297;28;20036;-46
2023/12/17 04:27:03;;;;;;;18.13;7.90;;;9.30;99.90;;;;;;5074484;28;20053;-46
2023/12/17 04:29:28;;;;;;;15.10;7.25;;;9.20;99.90;;;;;;5074389;28;20044;-46
2023/12/17 04:31:54;;;;;;;20.25;7.85;;;9.10;99.90;;;;;;5073939;28;20106;-48
2023/12/17 04:34:20;;;;;;;19.42;8.68;;;9.00;99.90;;;;;;5074178;28;20045;-46
2023/12/17 04:36:45;;;;;;;17.30;8.38;;;9.20;99.90;;;;;;5074458;28;20040;-46
2023/12/17 04:39:12;;;;;;;14.75;7.28;;;9.10;99.90;;;;;;5074244;28;20052;-47
2023/12/17 04:41:39;;;;;;;16.20;8.43;;;9.20;99.90;;;;;;5074238;28;20055;-50
2023/12/17 04:44:06;;;;;;;14.32;7.63;;;9.20;99.90;;;;;;5073205;28;20546;-48
2023/12/17 04:46:32;;;;;;;13.93;8.00;;;9.20;99.90;;;;;;5074134;28;20048;-46
2023/12/17 04:48:58;;;;;;;14.77;7.57;;;9.00;99.90;;;;;;5074095;28;20036;-49
2023/12/17 04:51:25;;;;;;;19.70;8.05;;;9.00;99.90;;;;;;5072671;28;20127;-47
2023/12/17 04:53:51;;;;;;;18.17;8.75;;;9.00;99.90;;;;;;5073667;28;20079;-49
2023/12/17 04:56:21;;;;;;;16.40;8.90;;;9.10;99.90;;;;;;5073773;28;20500;-47
2023/12/17 04:58:46;;;;;;;20.77;9.73;;;9.10;99.90;;;;;;5073953;28;20040;-50
2023/12/17 05:01:12;;;;;;;18.65;8.15;;;9.10;99.90;;;;;;5072203;28;20047;-48
2023/12/17 05:03:38;;;;;;;18.90;8.48;;;9.10;99.90;;;;;;5073468;28;20047;-47
2023/12/17 05:06:04;;;;;;;17.05;8.70;;;9.10;99.90;;;;;;5073567;28;20043;-48
2023/12/17 05:08:30;;;;;;;16.42;8.48;;;9.10;99.90;;;;;;5073711;28;20123;-49
2023/12/17 05:10:56;;;;;;;17.10;8.82;;;9.00;99.90;;;;;;5073325;28;20116;-50
2023/12/17 05:13:22;;;;;;;16.70;9.13;;;9.10;99.90;;;;;;5073658;28;20048;-46
2023/12/17 05:15:48;;;;;;;19.02;8.52;;;9.00;99.90;;;;;;5073471;28;20048;-50
2023/12/17 05:18:13;;;;;;;14.75;8.57;;;9.10;99.90;;;;;;5073431;28;20130;-46
2023/12/17 05:20:40;;;;;;;15.75;8.40;;;9.00;99.90;;;;;;5073688;28;20115;-47
2023/12/17 05:23:08;;;;;;;14.95;7.93;;;9.10;99.90;;;;;;5073244;28;20101;-48
2023/12/17 05:25:34;;;;;;;15.50;7.68;;;9.10;99.90;;;;;;5073522;28;20113;-48
2023/12/17 05:27:59;;;;;;;18.95;8.05;;;9.10;99.90;;;;;;5073194;28;20473;-47
2023/12/17 05:30:25;;;;;;;13.55;7.65;;;9.00;99.90;;;;;;5073397;28;20528;-46
2023/12/17 05:32:51;;;;;;;18.25;7.78;;;9.10;99.90;;;;;;5071860;28;20041;-46
2023/12/17 05:35:17;;;;;;;18.63;8.63;;;9.00;99.90;;;;;;5072094;28;20036;-47
2023/12/17 05:37:42;;;;;;;16.25;8.80;;;8.90;99.90;;;;;;5072174;28;20469;-49
2023/12/17 05:40:08;;;;;;;16.77;8.93;;;8.90;99.90;;;;;;5072518;28;20044;-46
2023/12/17 05:42:35;;;;;;;19.02;8.57;;;9.00;99.90;;;;;;5073184;28;20403;-49
2023/12/17 05:45:01;;;;;;;18.20;9.00;;;8.90;99.90;;;;;;5072538;28;20473;-46
2023/12/17 05:47:26;;;;;;;18.42;8.88;;;9.00;99.90;;;;;;5072691;28;20039;-47
2023/12/17 05:49:52;;;;;;;17.50;9.15;;;9.00;99.90;;;;;;5072610;28;20072;-47
2023/12/17 05:52:18;;;;;;;17.30;8.77;;;8.80;99.90;;;;;;5072829;28;20098;-46
2023/12/17 05:54:44;;;;;;;17.58;8.80;;;8.90;99.90;;;;;;5072615;28;20437;-47
2023/12/17 05:57:10;;;;;;;17.63;8.63;;;9.00;99.90;;;;;;5072670;28;20726;-47
2023/12/17 05:59:35;;;;;;;21.08;9.85;;;8.80;99.90;;;;;;5072815;28;20068;-49
2023/12/17 06:02:01;;;;;;;21.90;9.88;;;9.00;99.90;;;;;;5072796;28;20029;-46
2023/12/17 06:04:27;;;;;;;15.98;9.40;;;8.80;99.90;;;;;;5072899;28;20037;-48
2023/12/17 06:06:56;;;;;;;21.27;8.85;;;8.90;99.90;;;;;;5072456;28;20511;-46
2023/12/17 06:09:23;;;;;;;18.63;9.18;;;8.90;99.90;;;;;;5071283;28;20040;-51
2023/12/17 06:11:49;;;;;;;18.20;9.20;;;8.80;99.90;;;;;;5071390;28;20374;-50
2023/12/17 06:14:17;;;;;;;16.75;8.50;;;8.90;99.90;;;;;;5072241;28;20045;-46
2023/12/17 06:16:46;;;;;;;15.63;8.55;;;9.00;99.90;;;;;;5071222;28;20366;-47
2023/12/17 06:19:12;;;;;;;19.17;8.65;;;9.00;99.90;;;;;;5072377;28;20041;-46
2023/12/17 06:21:38;;;;;;;16.73;8.80;;;8.80;99.90;;;;;;5072274;28;20467;-45
2023/12/17 06:24:04;;;;;;;18.35;9.00;;;9.00;99.90;;;;;;5072413;28;20098;-47
2023/12/17 06:26:30;;;;;;;19.95;8.95;;;9.00;99.90;;;;;;5072333;28;20036;-47
2023/12/17 06:28:56;;;;;;;21.15;8.55;;;8.80;99.90;;;;;;5072189;28;20503;-49
2023/12/17 06:31:23;;;;;;;16.38;9.43;;;9.00;99.90;;;;;;5072434;28;20055;-50
2023/12/17 06:33:48;;;;;;;19.50;8.70;;;8.90;99.90;;;;;;5071726;28;20389;-50
2023/12/17 06:36:15;;;;;;;20.17;9.05;;;8.90;99.90;;;;;;5070507;28;20051;-49
2023/12/17 06:38:41;;;;;;;15.43;9.27;;;8.90;99.90;;;;;;5071683;28;20032;-47
2023/12/17 06:41:10;;;;;;;18.17;10.15;;;9.00;99.90;;;;;;5070366;28;20055;-46
2023/12/17 06:43:38;;;;;;;17.30;9.30;;;9.00;99.90;;;;;;5071920;28;20048;-50
2023/12/17 06:46:06;;;;;;;18.40;10.40;;;8.90;99.90;;;;;;5071817;28;20040;-49
2023/12/17 06:48:35;;;;;;;17.90;10.13;;;8.80;99.90;;;;;;5071866;28;20044;-46
2023/12/17 06:51:02;;;;;;;18.45;10.45;;;8.80;99.90;;;;;;5072292;28;20075;-46
2023/12/17 06:53:28;;;;;;;18.77;10.07;;;8.80;99.90;;;;;;5072049;28;20041;-46
2023/12/17 06:55:53;;;;;;;15.82;9.82;;;8.80;99.90;;;;;;5070315;28;20429;-47
2023/12/17 06:58:20;;;;;;;18.55;9.63;;;8.90;99.90;;;;;;5070116;28;20044;-47
2023/12/17 07:00:46;;;;;;;18.88;9.52;;;8.80;99.90;;;;;;5071378;28;20044;-48
2023/12/17 07:03:11;;;;;;;19.83;8.40;;;8.90;99.90;;;;;;5071319;28;20035;-47
2023/12/17 07:05:38;;;;;;;15.85;9.10;;;8.80;99.90;;;;;;5071625;28;20090;-46
2023/12/17 07:08:04;;;;;;;17.23;8.52;;;8.80;99.90;;;;;;5071310;28;20041;-46
2023/12/17 07:10:29;;;;;;;17.88;9.13;;;8.90;99.90;;;;;;5070429;28;20040;-48
2023/12/17 07:12:55;;;;;;;18.33;10.45;;;8.90;99.90;;;;;;5053534;28;20053;-48
2023/12/17 07:15:21;;;;;;;18.85;11.38;;;8.70;99.90;;;;;;5070327;28;20123;-46
2023/12/17 07:17:46;;;;;;;21.27;11.60;;;8.90;99.90;;;;;;5070314;28;20345;-45
2023/12/17 07:20:12;;;;;;;21.33;12.75;;;8.90;99.90;;;;;;5071827;28;20037;-47
2023/12/17 07:22:38;;;;;;;20.80;12.00;;;8.80;99.90;;;;;;5071563;28;20044;-45
2023/12/17 07:25:04;;;;;;;19.25;11.80;;;8.70;99.90;;;;;;5071741;28;20044;-46
2023/12/17 07:27:30;;;;;;;26.55;13.60;;;8.80;99.90;;;;;;5070322;28;20071;-46
2023/12/17 07:29:56;;;;;;;29.38;13.43;;;8.70;99.90;;;;;;5053782;28;20044;-48
2023/12/17 07:32:21;;;;;;;24.10;12.13;;;9.00;99.90;;;;;;5071712;28;20087;-45
2023/12/17 07:34:47;;;;;;;22.55;11.48;;;8.80;99.90;;;;;;5071848;28;20036;-46
2023/12/17 07:37:13;;;;;;;24.75;12.25;;;8.90;99.90;;;;;;5071696;28;20419;-48
2023/12/17 07:39:38;;;;;;;22.73;12.27;;;8.90;99.90;;;;;;5071211;28;20080;-46
2023/12/17 07:42:04;;;;;;;24.67;11.77;;;8.70;99.90;;;;;;5071631;28;20052;-45
2023/12/17 07:44:30;;;;;;;21.55;11.10;;;8.80;99.90;;;;;;5071389;28;20033;-48
2023/12/17 07:46:59;;;;;;;22.65;11.82;;;8.80;99.90;;;;;;5071246;28;20116;-50
2023/12/17 07:49:25;;;;;;;23.50;11.57;;;8.90;99.90;;;;;;5071405;28;20044;-50
2023/12/17 07:51:52;;;;;;;25.27;11.43;;;8.80;99.90;;;;;;5071535;28;20044;-48
2023/12/17 07:54:18;;;;;;;25.67;11.88;;;8.70;99.90;;;;;;5071595;28;20093;-46
2023/12/17 07:56:44;;;;;;;20.83;10.68;;;8.90;99.90;;;;;;5071488;28;20037;-45
2023/12/17 07:59:10;;;;;;;19.65;9.90;;;8.70;99.90;;;;;;5071512;28;20048;-46
2023/12/17 08:01:36;;;;;;;25.92;10.27;;;8.80;99.90;;;;;;5071512;28;20044;-50
2023/12/17 08:04:02;;;;;;;25.00;10.30;;;8.90;99.90;;;;;;5071150;28;20043;-47
2023/12/17 08:06:27;;;;;;;21.08;8.68;;;8.90;99.90;;;;;;5071513;28;20382;-47
2023/12/17 08:08:54;;;;;;;21.40;8.40;;;8.60;99.90;;;;;;5073997;28;20047;-45
2023/12/17 08:11:20;;;;;;;14.82;8.45;;;8.70;99.90;;;;;;5073665;28;20111;-46
2023/12/17 08:13:46;;;;;;;18.65;9.05;;;8.70;99.90;;;;;;5074732;28;20402;-50
2023/12/17 08:16:12;;;;;;;22.80;10.45;;;8.80;99.90;;;;;;5074648;28;20033;-50
2023/12/17 08:18:38;;;;;;;23.15;9.90;;;8.70;99.90;;;;;;5074835;28;20538;-49
2023/12/17 08:21:04;;;;;;;23.70;9.43;;;8.70;99.90;;;;;;5074688;28;20432;-47
2023/12/17 08:23:30;;;;;;;22.48;9.43;;;8.70;99.90;;;;;;5074805;28;20082;-48
2023/12/17 08:25:55;;;;;;;20.15;9.27;;;8.70;99.90;;;;;;5074553;28;20504;-48
2023/12/17 08:28:21;;;;;;;17.48;8.88;;;8.70;99.90;;;;;;5074340;28;20649;-50
2023/12/17 08:30:48;;;;;;;20.30;9.80;;;8.70;99.90;;;;;;5074277;28;20542;-49
2023/12/17 08:33:14;;;;;;;18.27;7.65;;;8.80;99.90;;;;;;5074354;28;20056;-46
2023/12/17 08:35:42;;;;;;;17.48;8.55;;;8.80;99.90;;;;;;5074457;28;20032;-49
2023/12/17 08:38:07;;;;;;;20.58;9.10;;;8.70;99.90;;;;;;5074328;28;20455;-49
2023/12/17 08:40:34;;;;;;;19.35;8.85;;;8.60;99.90;;;;;;5074065;28;20131;-46
2023/12/17 08:43:01;;;;;;;19.83;8.93;;;8.70;99.90;;;;;;5074019;28;20032;-45
2023/12/17 08:45:26;;;;;;;21.73;9.52;;;8.60;99.90;;;;;;5074202;28;20036;-45
2023/12/17 08:47:52;;;;;;;18.55;9.05;;;8.60;99.90;;;;;;5073708;28;20036;-46
2023/12/17 08:50:18;;;;;;;21.63;8.88;;;8.60;99.90;;;;;;5073767;28;20045;-46
2023/12/17 08:52:44;;;;;;;18.45;9.00;;;8.60;99.90;;;;;;5073747;28;20044;-46
2023/12/17 08:55:10;;;;;;;15.93;9.45;;;8.80;99.90;;;;;;5073771;28;20048;-46
2023/12/17 08:57:37;;;;;;;19.80;9.60;;;8.80;99.90;;;;;;5073773;28;20072;-47
2023/12/17 09:00:07;;;;;;;19.00;9.88;;;8.70;99.90;;;;;;5073907;28;20123;-45
2023/12/17 09:02:35;;;;;;;20.60;10.57;;;8.80;99.90;;;;;;5074065;28;20479;-46
2023/12/17 09:05:02;;;;;;;22.08;10.13;;;8.80;99.90;;;;;;5073795;28;20508;-45
2023/12/17 09:07:28;;;;;;;22.90;10.82;;;8.80;99.90;;;;;;5073961;28;20045;-46
2023/12/17 09:09:54;;;;;;;20.67;10.80;;;8.80;99.90;;;;;;5073719;28;20032;-50
2023/12/17 09:12:19;;;;;;;24.30;11.10;;;8.70;99.90;;;;;;5073565;28;20150;-47
2023/12/17 09:14:45;;;;;;;23.80;11.38;;;8.80;99.90;;;;;;5073622;28;20043;-47
2023/12/17 09:17:11;;;;;;;23.65;11.02;;;8.90;99.90;;;;;;5073443;28;20029;-46
2023/12/17 09:19:37;;;;;;;21.95;11.13;;;8.90;99.90;;;;;;5072958;28;20036;-49
2023/12/17 09:22:03;;;;;;;26.83;10.85;;;8.70;99.90;;;;;;5073652;28;20036;-46
2023/12/17 09:24:29;;;;;;;20.52;9.68;;;8.90;99.90;;;;;;5073283;28;20048;-49
2023/12/17 09:26:55;;;;;;;26.25;10.13;;;8.80;99.90;;;;;;5073278;28;20043;-48
2023/12/17 09:29:20;;;;;;;20.58;10.55;;;8.90;99.90;;;;;;5073275;28;20090;-48
2023/12/17 09:31:46;;;;;;;24.77;10.07;;;8.80;99.90;;;;;;5073363;28;20053;-46
2023/12/17 09:34:15;;;;;;;29.00;11.10;;;8.80;99.90;;;;;;5073383;28;20078;-48
2023/12/17 09:36:41;;;;;;;22.27;8.60;;;9.00;99.90;;;;;;5073206;28;20055;-47
2023/12/17 09:39:07;;;;;;;24.13;9.85;;;8.80;99.90;;;;;;5072928;28;20036;-48
2023/12/17 09:41:33;;;;;;;20.77;9.32;;;9.00;99.90;;;;;;5073173;28;20084;-46
2023/12/17 09:44:00;;;;;;;22.20;9.57;;;9.00;99.90;;;;;;5073091;28;20067;-46
2023/12/17 09:46:26;;;;;;;18.73;8.93;;;8.90;99.90;;;;;;5072830;28;20087;-49
2023/12/17 09:48:51;;;;;;;19.48;8.85;;;9.00;99.90;;;;;;5072814;28;20070;-49
2023/12/17 09:51:18;;;;;;;23.63;9.82;;;9.00;99.90;;;;;;5072814;28;20045;-46
2023/12/17 09:53:44;;;;;;;23.83;10.40;;;8.90;99.90;;;;;;5071517;28;20119;-46
2023/12/17 09:56:12;;;;;;;21.38;9.88;;;8.90;99.90;;;;;;5072868;28;20132;-46
2023/12/17 09:58:38;;;;;;;19.27;10.20;;;8.90;99.90;;;;;;5073008;28;20056;-45
2023/12/17 10:01:03;;;;;;;19.98;9.23;;;9.00;99.90;;;;;;5072768;28;20094;-45
2023/12/17 10:03:30;;;;;;;25.13;9.38;;;9.00;99.90;;;;;;5072897;28;20033;-45
2023/12/17 10:05:55;;;;;;;21.27;9.02;;;9.00;99.90;;;;;;5071621;28;20044;-49
2023/12/17 10:08:22;;;;;;;20.50;8.65;;;9.10;99.90;;;;;;5072593;28;20056;-47
2023/12/17 10:10:48;;;;;;;20.17;8.90;;;9.00;99.90;;;;;;5072841;28;20063;-48
2023/12/17 10:13:19;;;;;;;20.52;8.32;;;9.00;99.90;;;;;;5071516;28;20463;-49
2023/12/17 10:15:52;;;;;;;18.27;8.98;;;8.90;99.90;;;;;;5072685;28;20036;-48
2023/12/17 10:18:18;;;;;;;20.98;9.77;;;9.00;99.90;;;;;;5072584;28;20408;-47
2023/12/17 10:20:45;;;;;;;28.13;10.45;;;9.00;99.90;;;;;;5072363;28;20089;-50
2023/12/17 10:23:12;;;;;;;19.90;10.40;;;9.00;99.90;;;;;;5072251;28;20055;-47
2023/12/17 10:25:38;;;;;;;28.35;12.68;;;9.00;99.90;;;;;;5072265;28;20041;-47
2023/12/17 10:28:04;;;;;;;22.73;11.52;;;8.90;99.90;;;;;;5072223;28;20044;-47
2023/12/17 10:30:32;;;;;;;28.88;13.55;;;9.00;99.90;;;;;;5071782;28;20052;-47
2023/12/17 10:32:59;;;;;;;29.95;13.82;;;8.90;99.90;;;;;;5072030;28;20055;-48
2023/12/17 10:35:25;;;;;;;33.08;15.35;;;8.90;99.90;;;;;;5071908;28;20044;-45
2023/12/17 10:38:02;;;;;;;28.00;14.60;;;9.00;99.90;;;;;;5072083;28;20484;-47
2023/12/17 10:40:28;;;;;;;24.65;15.10;;;9.00;99.90;;;;;;5071758;28;20056;-49
2023/12/17 10:42:59;;;;;;;28.85;14.88;;;9.00;99.90;;;;;;5072265;28;20067;-47
2023/12/17 10:45:25;;;;;;;30.58;15.88;;;8.90;99.90;;;;;;5072161;28;20087;-47
2023/12/17 10:47:56;;;;;;;28.40;14.02;;;9.00;99.90;;;;;;5072191;28;20028;-45
2023/12/17 10:50:24;;;;;;;28.20;15.05;;;9.10;99.90;;;;;;5072191;28;20090;-48
2023/12/17 10:52:50;;;;;;;29.35;12.93;;;9.00;99.90;;;;;;5072074;28;20040;-47
2023/12/17 10:55:17;;;;;;;29.15;14.43;;;9.00;99.90;;;;;;5070817;28;20037;-46
2023/12/17 10:57:59;;;;;;;29.92;14.95;;;9.10;99.90;;;;;;5071919;28;20044;-45
2023/12/17 11:00:29;;;;;;;26.85;14.38;;;9.20;99.90;;;;;;5072148;28;20048;-47
2023/12/17 11:02:59;;;;;;;28.85;14.75;;;9.10;99.90;;;;;;5071947;28;20044;-47
2023/12/17 11:05:25;;;;;;;27.60;15.18;;;9.00;99.90;;;;;;5072241;28;20052;-46
2023/12/17 11:07:50;;;;;;;24.85;14.07;;;9.00;99.90;;;;;;5071792;28;20040;-47
2023/12/17 11:10:17;;;;;;;33.25;15.90;;;9.10;99.90;;;;;;5071726;28;20044;-45
2023/12/17 11:12:46;;;;;;;33.53;17.02;;;9.00;99.90;;;;;;5071529;28;20082;-45
2023/12/17 11:15:13;;;;;;;33.45;16.45;;;9.10;99.90;;;;;;5071546;28;20155;-45
2023/12/17 11:17:39;;;;;;;29.88;16.38;;;9.10;99.90;;;;;;5071557;28;20049;-45
2023/12/17 11:20:06;;;;;;;28.40;14.98;;;9.20;99.90;;;;;;5071599;28;20573;-45
2023/12/17 11:22:36;;;;;;;34.15;14.10;;;9.20;99.90;;;;;;5070579;28;20048;-46
2023/12/17 11:25:03;;;;;;;26.80;13.40;;;9.20;99.90;;;;;;5071922;28;20036;-45
2023/12/17 11:27:31;;;;;;;24.50;13.35;;;9.10;99.90;;;;;;5070286;28;20036;-46
2023/12/17 11:29:57;;;;;;;26.98;13.85;;;9.10;99.90;;;;;;5071842;28;20045;-46
2023/12/17 11:32:27;;;;;;;25.02;13.60;;;9.20;99.90;;;;;;5071594;28;20045;-45
2023/12/17 11:34:54;;;;;;;27.40;15.05;;;9.20;99.90;;;;;;5071721;28;20392;-48
2023/12/17 11:37:21;;;;;;;27.98;14.45;;;9.30;99.90;;;;;;5071622;28;20115;-45
2023/12/17 11:39:48;;;;;;;32.50;15.48;;;9.30;99.90;;;;;;5071230;28;20670;-45
2023/12/17 11:42:14;;;;;;;28.40;15.32;;;9.40;99.90;;;;;;5071942;28;20053;-46
2023/12/17 11:44:48;;;;;;;25.40;15.75;;;9.30;99.90;;;;;;5074000;28;20154;-45
2023/12/17 11:47:15;;;;;;;26.15;13.90;;;9.40;99.90;;;;;;5075158;28;20170;-45
2023/12/17 11:49:42;;;;;;;25.42;15.35;;;9.30;99.90;;;;;;5075545;28;20112;-45
2023/12/17 11:52:16;;;;;;;24.77;14.52;;;9.40;99.90;;;;;;5075458;28;20083;-46
2023/12/17 11:54:42;;;;;;;26.67;14.10;;;9.50;99.90;;;;;;5075036;28;20037;-45
2023/12/17 11:57:34;;;;;;;22.60;14.40;;;9.50;99.90;;;;;;5075056;28;20136;-47
2023/12/17 12:00:00;;;;;;;22.25;13.52;;;9.40;99.90;;;;;;5072895;28;20127;-51
2023/12/17 12:02:28;;;;;;;25.70;15.07;;;9.40;99.90;;;;;;5075056;28;20075;-48
2023/12/17 12:04:55;;;;;;;23.17;12.77;;;9.50;99.90;;;;;;5075058;28;20045;-46
2023/12/17 12:07:20;;;;;;;23.35;14.90;;;9.40;99.90;;;;;;5074776;28;20527;-48
2023/12/17 12:09:47;;;;;;;25.20;13.25;;;9.50;99.90;;;;;;5075041;28;20036;-45
2023/12/17 12:12:19;;;;;;;23.70;13.15;;;9.50;99.90;;;;;;5074745;28;20052;-47
2023/12/17 12:14:47;;;;;;;;;;;9.40;99.90;;;;;;5075248;28;20090;-50
2023/12/17 12:17:38;;;;;;;24.38;14.48;;;9.50;99.90;;;;;;5074664;28;19921;-50
2023/12/17 12:20:13;;;;;;;21.67;14.02;;;9.40;99.90;;;;;;5073339;28;20083;-48
2023/12/17 12:22:42;;;;;;;24.90;14.32;;;9.30;99.90;;;;;;5074792;28;20037;-47
2023/12/17 12:25:12;;;;;;;25.83;14.68;;;9.20;99.90;;;;;;5074502;28;20126;-46
2023/12/17 12:27:38;;;;;;;20.83;13.02;;;9.30;99.90;;;;;;5074780;28;20047;-49
2023/12/17 12:30:05;;;;;;;26.60;13.52;;;9.30;99.90;;;;;;5074206;28;20044;-49
2023/12/17 12:32:33;;;;;;;25.45;13.15;;;9.20;99.90;;;;;;5073093;28;20400;-47
2023/12/17 12:34:59;;;;;;;25.85;12.95;;;9.30;99.90;;;;;;5074500;28;20040;-47
2023/12/17 12:37:36;;;;;;;24.13;13.95;;;9.30;99.90;;;;;;5074270;28;20040;-48
2023/12/17 12:40:05;;;;;;;26.52;12.75;;;9.30;99.90;;;;;;5074196;28;20080;-49